[x] [x]
.:Aeroklub Partizánske:. |  .:Fotogaléria:. |  .:Videogaléria:. |  .:Foto týždňa:. |  .:Kniha návštev:. |  .:Linky:. |  .:Moje konto:.
 MENU [x]

 METEO [x]

 FotoGaléria [x]

 Slnko [x]
LZPT Partizánske
48°37'N 18°20'E
Východ: 5:57 AM
Západ: 7:37 PM
LZIB Bratislava
48°10'N 17°12'E
Východ: 6:02 AM
Západ: 7:41 PM
LZKZ Košice
48°39'N 21°14'E
Východ: 5:45 AM
Západ: 7:26 PM

 Jazyky [x]
Vyberte jazyk rozhrania:

Slovak English German Polish


  SPRÁVY METAR - ČESKÁ REPUBLIKA
Brno-TuřanyLKTB 161030Z 34011KT 9999 BKN043 09/M01 Q1024 NOSIGdekóduj
ČáslavLKCV 161000Z 32011KT 270V360 9999 SCT030 BKN070 09/01 Q1027 NOSIG RMK BLU BLUdekóduj
HolešovLKHO 010800Z VRB03KT CAVOK 23/17 Q1019dekóduj
Hradec Královedekóduj
Karlovy VaryLKKV 161030Z 35010KT 9999 SCT027 06/00 Q1028dekóduj
KunoviceLKKU 161000Z 02017KT 9999 FEW028 BKN038 09/03 Q1024 RMK REG QNH 1020dekóduj
LiberecLKLB 020602Z 16003KT 9999 FEW016 BKN043 M01/M02 Q1016dekóduj
Mariánsky Láznědekóduj
Náměšť nad OslavouLKNA 161000Z 35012G21KT 9999 BKN033 07/M02 Q1024 NOSIG RMK BLU BLUdekóduj
Ostrava-MošnovLKMT 161030Z 01012KT 9999 BKN022 OVC025 05/01 Q1025 NOSIGdekóduj
PardubiceLKPD 161000Z 36006G17KT 280V070 9999 BKN037 09/M00 Q1027 NOSIG RMK BLU BLUdekóduj
Praha-KbelyLKKB 161000Z 33009KT 290V020 9999 SCT026 08/02 Q1028 NOSIGdekóduj
Praha-RuzyněLKPR 161030Z 36012KT 9999 SCT032 08/00 Q1028 NOSIGdekóduj
PřerovLKPO 010000Z 05005KT CAVOK 04/01 Q1013dekóduj
 FreeFly INFO [x]
COROWA 2009


COROWA 2009


COROWA 2009



 LZPT webcam [x]

 Foto týždňa [x]

 KBO SNA [x]

 Login [x]
Užívateľské meno

Heslo


Ešte nemáš konto? Môžeš si ho vytvoriť. Registrovaný užívateľ má množstvo výhod, napr. posielanie okamžitých správ iným užívateľom, posielanie komentárov s vlastným menom, možnosť pridávať fotografie do galérie...

 Kto je online [x]
Momentálne je online 56 hostí a 0 členov.

Ste anonymný užívateľ. Zaregistrovať sa môžete tu

DETAILY

 Linky [x]

 Počítadlo návštev [x]
Zaznamenali sme
32362118
strán zobrazených od júna 2003

Počet dnešných unikátnych IP adries:
0



www.freefly.sk
Powered by SzMsoft ©2003-2005. Polish translations by Cezary Dąbek. Flying server www.freefly.sk is administrated by maro@freefly.sk - www.artweb.freefly.sk
PHP-Nuke Copyright © 2004 by Francisco Burzi. This is free software, and you may redistribute it under the GPL. PHP-Nuke comes with absolutely no warranty, for details, see the license.